Time;durP1;ratioP1;P1;durP2;ratioP2;P2;SDS_P1;SDS_P2;PMS_P1;PMS_P2;Temp;Humidity;BMP_temperature;BMP_pressure;BME280_temperature;BME280_humidity;BME280_pressure;Samples;Min_cycle;Max_cycle;Signal;HPM_P1;HPM_P2
2022/12/15 00:39:40;;;;;;;23.40;10.93;;;-3273.10;80.40;;;;;;5106176;27;20063;-72
2022/12/15 00:42:08;;;;;;;20.88;10.57;;;-3273.10;80.50;;;;;;5116585;27;20047;-63
2022/12/15 00:44:36;;;;;;;22.80;10.20;;;-3273.00;80.50;;;;;;5112805;27;20132;-62
2022/12/15 00:47:02;;;;;;;22.95;9.48;;;-3273.00;80.60;;;;;;5116575;27;20511;-71
2022/12/15 01:22:37;;;;;;;21.20;8.50;;;-3273.00;80.80;;;;;;5119541;27;20440;-64
2022/12/15 01:25:05;;;;;;;23.40;9.30;;;-3273.10;80.90;;;;;;5119711;27;20123;-64
2022/12/15 01:27:33;;;;;;;18.45;9.93;;;-3273.10;80.90;;;;;;5121026;27;20047;-61
2022/12/15 01:30:01;;;;;;;21.38;9.20;;;-3273.10;80.90;;;;;;5110274;27;20047;-62
2022/12/15 01:32:30;;;;;;;19.70;9.68;;;-3273.10;81.00;;;;;;5118706;27;20489;-63
2022/12/15 01:34:57;;;;;;;17.52;9.07;;;-3273.00;81.00;;;;;;5115133;27;21036;-63
2022/12/15 01:37:24;;;;;;;19.52;9.05;;;-3273.10;81.10;;;;;;5110635;27;20047;-71
2022/12/15 01:42:37;;;;;;;21.45;9.63;;;-3273.00;81.00;;;;;;5110787;27;20508;-62
2022/12/15 01:45:47;;;;;;;19.85;9.20;;;-3273.00;81.10;;;;;;5117679;27;20070;-61
2022/12/15 01:48:19;;;;;;;22.75;9.95;;;-3273.00;81.20;;;;;;5110703;27;20047;-62
2022/12/15 01:50:51;;;;;;;23.20;9.77;;;-3273.10;81.10;;;;;;5117845;27;20913;-70
2022/12/15 01:53:18;;;;;;;18.33;8.93;;;-3273.00;81.10;;;;;;5118626;27;20044;-70
2022/12/15 01:55:46;;;;;;;24.27;10.30;;;-3273.00;81.20;;;;;;5107656;27;20053;-71
2022/12/15 01:58:16;;;;;;;22.35;9.60;;;-3273.00;81.20;;;;;;5091255;28;20051;-71
2022/12/15 02:00:44;;;;;;;19.80;9.40;;;-3273.00;81.30;;;;;;5097340;27;20659;-66
2022/12/15 02:03:12;;;;;;;16.90;8.75;;;-3273.10;81.20;;;;;;5097729;28;20071;-66
2022/12/15 02:05:41;;;;;;;18.33;9.02;;;-3273.00;81.20;;;;;;5097668;27;20062;-63
2022/12/15 02:08:09;;;;;;;18.38;9.15;;;-3273.10;81.20;;;;;;5097200;28;20075;-62
2022/12/15 02:10:49;;;;;;;22.65;10.00;;;-3273.10;81.20;;;;;;5098622;28;20059;-69
2022/12/15 02:13:23;;;;;;;21.75;9.35;;;-3273.10;81.20;;;;;;5096941;28;20064;-68
2022/12/15 02:15:56;;;;;;;19.75;9.52;;;-3273.10;81.00;;;;;;5097432;28;20040;-65
2022/12/15 02:18:35;;;;;;;19.17;9.15;;;-3272.90;81.00;;;;;;5090689;28;20394;-66
2022/12/15 02:21:09;;;;;;;20.58;9.75;;;-3272.90;81.00;;;;;;5114369;27;20044;-62
2022/12/15 02:24:14;;;;;;;20.65;9.02;;;-3272.90;81.00;;;;;;5107153;27;20142;-61
2022/12/15 02:27:20;;;;;;;18.05;8.52;;;-3272.90;81.00;;;;;;5116364;27;20116;-65
2022/12/15 02:30:15;;;;;;;17.50;8.80;;;-3273.00;81.00;;;;;;5109462;27;20092;-65
2022/12/15 02:32:48;;;;;;;18.45;8.88;;;-3273.00;81.00;;;;;;5117934;27;20499;-65
2022/12/15 02:35:21;;;;;;;19.90;8.85;;;-3273.00;80.90;;;;;;5105201;27;20127;-64
2022/12/15 02:37:48;;;;;;;20.38;9.27;;;-3273.00;81.10;;;;;;5105766;27;20047;-65
2022/12/15 02:40:15;;;;;;;20.63;8.98;;;-3273.10;81.10;;;;;;5115053;27;20071;-61
2022/12/15 02:42:45;;;;;;;20.30;9.20;;;-3273.00;81.10;;;;;;5115359;27;20062;-62
2022/12/15 02:45:16;;;;;;;17.25;8.15;;;-3273.00;81.30;;;;;;5109547;27;20046;-63
2022/12/15 02:47:52;;;;;;;19.45;8.30;;;-3273.10;81.50;;;;;;5105874;27;22982;-61
2022/12/15 02:50:39;;;;;;;21.50;9.63;;;-3273.10;81.50;;;;;;5115357;27;20046;-62
2022/12/15 02:53:21;;;;;;;21.00;9.57;;;-3273.10;81.60;;;;;;5125376;27;20040;-60
2022/12/15 02:55:56;;;;;;;19.45;9.50;;;-3273.10;81.60;;;;;;5117508;27;20476;-61
2022/12/15 02:58:31;;;;;;;18.30;9.02;;;-3273.10;81.60;;;;;;5117450;27;20089;-61
2022/12/15 03:01:03;;;;;;;21.40;9.77;;;-3273.20;81.60;;;;;;5117935;27;20044;-61
2022/12/15 03:03:32;;;;;;;18.92;9.20;;;-3273.20;81.60;;;;;;5085900;27;20048;-62
2022/12/15 03:06:01;;;;;;;18.73;9.95;;;-3273.20;81.70;;;;;;5110232;27;20128;-59
2022/12/15 03:08:29;;;;;;;23.95;10.52;;;-3273.20;81.60;;;;;;5117018;27;20105;-62
2022/12/15 03:10:58;;;;;;;19.13;9.20;;;-3273.20;81.60;;;;;;5117280;27;20530;-61
2022/12/15 03:13:25;;;;;;;20.70;8.50;;;-3273.20;81.70;;;;;;5118125;27;20043;-61
2022/12/15 03:15:53;;;;;;;18.50;9.02;;;-3273.20;81.70;;;;;;5113590;27;20192;-71
2022/12/15 03:18:21;;;;;;;19.67;9.30;;;-3273.20;81.70;;;;;;5114014;27;20066;-71
2022/12/15 03:20:50;;;;;;;18.90;8.93;;;-3273.20;81.60;;;;;;5107906;27;20042;-63
2022/12/15 03:23:17;;;;;;;19.88;10.00;;;-3273.20;81.80;;;;;;5113574;27;20048;-60
2022/12/15 03:25:44;;;;;;;17.55;9.27;;;-3273.20;81.90;;;;;;5117605;27;20048;-62
2022/12/15 03:28:11;;;;;;;18.45;9.07;;;-3273.30;81.80;;;;;;5114780;27;20082;-63
2022/12/15 03:30:38;;;;;;;19.92;9.25;;;-3273.20;81.80;;;;;;5109253;27;20081;-62
2022/12/15 03:33:05;;;;;;;19.08;9.02;;;-3273.20;81.80;;;;;;5116137;27;20071;-63
2022/12/15 03:35:33;;;;;;;18.50;9.65;;;-3273.20;82.00;;;;;;5111863;27;20622;-63
2022/12/15 03:38:00;;;;;;;18.45;8.57;;;-3273.20;82.00;;;;;;5114651;27;20043;-63
2022/12/15 03:40:28;;;;;;;17.70;8.45;;;-3273.20;82.00;;;;;;5116231;27;20035;-61
2022/12/15 03:42:55;;;;;;;19.77;8.35;;;-3273.30;82.10;;;;;;5113460;27;20508;-63
2022/12/15 03:45:24;;;;;;;18.23;8.80;;;-3273.20;82.10;;;;;;5118988;27;20097;-70
2022/12/15 03:47:52;;;;;;;16.02;8.15;;;-3273.30;82.10;;;;;;5107203;27;20051;-69
2022/12/15 03:50:21;;;;;;;20.15;8.95;;;-3273.30;82.10;;;;;;5114196;27;20052;-70
2022/12/15 03:52:52;;;;;;;18.35;8.77;;;-3273.30;82.10;;;;;;5116212;27;20047;-69
2022/12/15 03:55:19;;;;;;;17.95;8.82;;;-3273.30;82.10;;;;;;5117052;27;20100;-60
2022/12/15 03:57:46;;;;;;;16.90;8.80;;;-3273.30;82.10;;;;;;5114336;27;20051;-61
2022/12/15 04:00:17;;;;;;;16.80;8.77;;;-3273.30;82.20;;;;;;5112446;27;20060;-67
2022/12/15 04:02:45;;;;;;;17.38;8.75;;;-3273.30;82.30;;;;;;5115912;27;20063;-66
2022/12/15 04:05:15;;;;;;;19.50;9.50;;;-3273.40;82.20;;;;;;5117105;27;20980;-63
2022/12/15 04:07:42;;;;;;;17.10;8.93;;;-3273.30;82.10;;;;;;5116079;27;20063;-61
2022/12/15 04:10:10;;;;;;;18.45;8.68;;;-3273.40;82.10;;;;;;5108678;27;20528;-62
2022/12/15 04:12:38;;;;;;;19.13;8.70;;;-3273.40;82.10;;;;;;5125536;27;20048;-62
2022/12/15 04:15:07;;;;;;;18.05;8.23;;;-3273.40;82.20;;;;;;5111271;27;20081;-62
2022/12/15 04:17:34;;;;;;;18.52;8.98;;;-3273.50;82.10;;;;;;5115103;27;20139;-62
2022/12/15 04:20:10;;;;;;;19.52;9.40;;;-3273.50;82.20;;;;;;5113920;27;20582;-62
2022/12/15 04:22:38;;;;;;;21.42;8.65;;;-3273.50;82.20;;;;;;5106666;27;20035;-62
2022/12/15 05:33:54;;;;;;;19.98;9.48;;;-3273.80;82.50;;;;;;5115688;27;20051;-63
2022/12/15 05:36:22;;;;;;;17.90;9.93;;;-3273.80;82.50;;;;;;5114373;27;20508;-62
2022/12/15 05:38:50;;;;;;;19.13;9.13;;;-3273.80;82.40;;;;;;5116613;27;20134;-61
2022/12/15 05:41:19;;;;;;;19.58;10.05;;;-3273.80;82.50;;;;;;5114498;27;20051;-63
2022/12/15 05:43:46;;;;;;;18.15;9.45;;;-3273.90;82.70;;;;;;5116343;27;20460;-63
2022/12/15 05:46:14;;;;;;;20.83;9.65;;;-3273.80;82.80;;;;;;5114573;27;20039;-62
2022/12/15 05:48:41;;;;;;;19.05;8.63;;;-3273.80;82.80;;;;;;5117263;27;20071;-62
2022/12/15 05:51:12;;;;;;;22.02;9.65;;;-3273.90;82.90;;;;;;5109654;27;20046;-62
2022/12/15 05:53:40;;;;;;;17.95;10.18;;;-3273.80;83.00;;;;;;5111038;27;20047;-63
2022/12/15 05:56:10;;;;;;;21.13;10.25;;;-3273.90;83.00;;;;;;5116617;27;20035;-62
2022/12/15 05:58:37;;;;;;;17.50;8.48;;;-3273.90;83.00;;;;;;5108430;27;20131;-62
2022/12/15 06:01:06;;;;;;;22.75;10.32;;;-3273.90;83.10;;;;;;5098561;27;20505;-70
2022/12/15 06:03:32;;;;;;;20.77;10.45;;;-3273.90;83.30;;;;;;5093309;27;20103;-70
2022/12/15 06:06:01;;;;;;;22.95;11.23;;;-3273.90;83.50;;;;;;5108494;27;20102;-62
2022/12/15 06:08:31;;;;;;;23.85;11.30;;;-3273.90;83.90;;;;;;5090656;28;20088;-61
2022/12/15 06:10:59;;;;;;;26.70;11.38;;;-3273.90;84.10;;;;;;5096607;28;20039;-65
2022/12/15 06:13:27;;;;;;;26.48;11.13;;;-3273.80;84.40;;;;;;5096440;28;20044;-66
2022/12/15 06:15:56;;;;;;;24.38;11.00;;;-3273.90;84.50;;;;;;5097150;27;20038;-62
2022/12/15 06:18:23;;;;;;;24.52;10.70;;;-3273.90;84.50;;;;;;5094967;27;20052;-61
2022/12/15 06:20:57;;;;;;;22.92;11.40;;;-3273.90;84.50;;;;;;5095018;28;20048;-62
2022/12/15 06:23:24;;;;;;;23.92;12.02;;;-3273.80;84.50;;;;;;5083367;28;20052;-62
2022/12/15 06:25:52;;;;;;;26.08;11.80;;;-3273.80;84.80;;;;;;5092864;28;20052;-70
2022/12/15 06:32:13;;;;;;;26.23;10.90;;;-3273.90;84.60;;;;;;5110406;27;20084;-69
2022/12/15 06:34:40;;;;;;;27.85;12.00;;;-3273.90;84.70;;;;;;5103180;27;20490;-70
2022/12/15 06:37:11;;;;;;;29.60;10.70;;;-3273.90;85.00;;;;;;5113099;27;20054;-66
2022/12/15 06:39:38;;;;;;;24.95;11.57;;;-3273.90;85.00;;;;;;5108060;27;20047;-66
2022/12/15 06:42:06;;;;;;;25.58;11.10;;;-3273.90;85.20;;;;;;5115762;27;20062;-66
2022/12/15 06:44:33;;;;;;;25.30;11.82;;;-3273.90;85.10;;;;;;5113573;27;20055;-64
2022/12/15 06:47:00;;;;;;;28.08;12.32;;;-3273.90;85.00;;;;;;5109902;27;20043;-66
2022/12/15 06:49:29;;;;;;;24.67;11.32;;;-3273.90;84.90;;;;;;5096632;28;20093;-65
2022/12/15 06:51:56;;;;;;;27.00;11.52;;;-3273.90;84.80;;;;;;5091396;28;20066;-65
2022/12/15 06:54:23;;;;;;;22.55;11.60;;;-3273.90;84.80;;;;;;5100045;28;20056;-65
2022/12/15 06:56:49;;;;;;;23.98;11.55;;;-3274.00;84.70;;;;;;5094036;28;20130;-69
2022/12/15 06:59:18;;;;;;;22.52;10.48;;;-3273.90;84.50;;;;;;5093904;28;20048;-70
2022/12/15 07:01:45;;;;;;;24.35;10.75;;;-3273.90;84.40;;;;;;5095305;28;20040;-66
2022/12/15 07:04:12;;;;;;;27.90;11.88;;;-3274.00;84.40;;;;;;5093049;28;20072;-66
2022/12/15 07:06:39;;;;;;;30.10;11.80;;;-3273.90;84.30;;;;;;5086479;28;23632;-71
2022/12/15 07:09:10;;;;;;;25.60;11.10;;;-3273.90;84.40;;;;;;5112506;27;20044;-72
2022/12/15 07:11:37;;;;;;;;;;;-3273.90;84.70;;;;;;5094658;27;20048;-64
2022/12/15 07:14:04;;;;;;;24.83;10.60;;;-3273.90;84.80;;;;;;5110194;27;19924;-62
2022/12/15 07:16:33;;;;;;;24.63;10.80;;;-3273.90;84.50;;;;;;5111521;27;20057;-65
2022/12/15 07:19:00;;;;;;;28.10;12.18;;;-3273.90;84.40;;;;;;5117055;27;20059;-65
2022/12/15 07:21:28;;;;;;;24.98;10.88;;;-3273.90;84.60;;;;;;5112832;27;20089;-70
2022/12/15 07:23:54;;;;;;;26.13;12.18;;;-3273.90;84.30;;;;;;5131674;27;20411;-72
2022/12/15 07:26:21;;;;;;;24.45;11.63;;;-3273.90;84.40;;;;;;5109875;27;20051;-63
2022/12/15 07:28:49;;;;;;;26.23;10.98;;;-3273.90;84.60;;;;;;5114482;27;20112;-63
2022/12/15 07:31:16;;;;;;;26.63;12.20;;;-3273.90;84.60;;;;;;5113168;27;20051;-62
2022/12/15 07:33:47;;;;;;;27.52;12.73;;;-3273.80;84.70;;;;;;5112996;27;20057;-63
2022/12/15 07:36:14;;;;;;;26.83;12.10;;;-3273.80;84.70;;;;;;5109782;27;20043;-65
2022/12/15 07:38:40;;;;;;;27.65;11.18;;;-3273.90;84.40;;;;;;5114411;27;20464;-66
2022/12/15 07:41:09;;;;;;;26.77;11.90;;;-3273.90;84.30;;;;;;5113895;27;20051;-72
2022/12/15 07:43:36;;;;;;;28.45;12.88;;;-3273.90;84.00;;;;;;5115217;27;20044;-71
2022/12/15 07:46:04;;;;;;;27.33;12.32;;;-3273.90;83.90;;;;;;5106979;27;20059;-61
2022/12/15 07:48:32;;;;;;;29.88;11.63;;;-3273.90;84.10;;;;;;5094555;28;20051;-62
2022/12/15 07:51:05;;;;;;;26.98;12.60;;;-3273.90;83.90;;;;;;5095605;28;20048;-66
2022/12/15 07:53:32;;;;;;;24.40;12.07;;;-3274.00;83.80;;;;;;5087113;27;20048;-66
2022/12/15 07:56:00;;;;;;;27.60;12.80;;;-3273.90;83.80;;;;;;5116959;27;20053;-71
2022/12/15 07:58:28;;;;;;;28.10;11.25;;;-3273.90;83.80;;;;;;5115514;27;20047;-72
2022/12/15 08:01:00;;;;;;;26.73;11.82;;;-3273.80;84.00;;;;;;5115630;27;20103;-62
2022/12/15 08:03:28;;;;;;;30.02;12.10;;;-3273.80;84.20;;;;;;5112309;27;20051;-62
2022/12/15 08:05:55;;;;;;;25.27;11.18;;;-3273.90;84.00;;;;;;5113595;27;20048;-70
2022/12/15 08:08:23;;;;;;;26.92;11.80;;;-3274.00;84.00;;;;;;5113662;27;20531;-71
2022/12/15 08:10:51;;;;;;;24.40;11.15;;;-3274.00;84.00;;;;;;5114161;27;20120;-61
2022/12/15 08:13:18;;;;;;;27.27;12.05;;;-3273.90;84.00;;;;;;5115291;27;20050;-61
2022/12/15 08:15:45;;;;;;;25.67;11.43;;;-3273.90;84.20;;;;;;5111995;27;20055;-61
2022/12/15 08:18:12;;;;;;;30.48;12.27;;;-3274.00;84.20;;;;;;5119896;27;20129;-61
2022/12/15 08:20:40;;;;;;;27.75;12.13;;;-3274.00;84.10;;;;;;5123443;27;20054;-71
2022/12/15 08:23:07;;;;;;;25.90;11.75;;;-3274.10;84.00;;;;;;5118037;27;20068;-72
2022/12/15 08:25:36;;;;;;;26.27;12.00;;;-3274.20;83.70;;;;;;5116027;27;20051;-60
2022/12/15 08:28:03;;;;;;;26.92;11.40;;;-3274.10;83.80;;;;;;5115110;27;20058;-61
2022/12/15 08:30:32;;;;;;;23.77;12.30;;;-3274.10;83.80;;;;;;5103366;27;20051;-61
2022/12/15 08:32:58;;;;;;;27.08;11.73;;;-3274.10;83.90;;;;;;5098419;27;20489;-62
2022/12/15 08:39:19;;;;;;;29.05;12.00;;;-3274.20;83.80;;;;;;5117675;27;20901;-65
2022/12/15 08:41:48;;;;;;;29.52;11.40;;;-3274.20;83.90;;;;;;5079185;28;20071;-62
2022/12/15 08:44:15;;;;;;;28.55;11.48;;;-3274.20;83.80;;;;;;5100845;27;20056;-61
2022/12/15 08:46:42;;;;;;;24.13;11.48;;;-3274.20;83.80;;;;;;5098726;27;20045;-64
2022/12/15 08:49:10;;;;;;;29.20;12.25;;;-3274.20;83.80;;;;;;5102420;27;20064;-66
2022/12/15 08:51:37;;;;;;;27.92;12.30;;;-3274.30;83.60;;;;;;5097569;27;20151;-63
2022/12/15 08:54:04;;;;;;;28.02;12.98;;;-3274.30;83.60;;;;;;5096454;27;20056;-67
2022/12/15 08:56:31;;;;;;;29.98;13.30;;;-3274.30;83.60;;;;;;5096003;27;20080;-62
2022/12/15 08:59:01;;;;;;;28.70;12.95;;;-3274.20;83.80;;;;;;5113637;27;20126;-63
2022/12/15 09:01:31;;;;;;;26.50;12.18;;;-3274.20;83.70;;;;;;5114992;27;20053;-62
2022/12/15 09:03:58;;;;;;;30.55;13.02;;;-3274.20;83.90;;;;;;5117844;27;20047;-61
2022/12/15 09:06:27;;;;;;;33.45;13.93;;;-3274.20;83.90;;;;;;5121127;27;20048;-70
2022/12/15 09:08:56;;;;;;;31.08;13.15;;;-3274.30;83.50;;;;;;5116162;27;20048;-71
2022/12/15 09:11:23;;;;;;;30.65;13.25;;;-3274.20;83.60;;;;;;5116664;27;20048;-63
2022/12/15 09:13:50;;;;;;;30.63;13.98;;;-3274.20;83.60;;;;;;5121531;27;20131;-63
2022/12/15 09:16:20;;;;;;;28.95;13.02;;;-3274.20;83.50;;;;;;5120282;27;20496;-65
2022/12/15 09:18:49;;;;;;;27.05;12.98;;;-3274.30;83.30;;;;;;5119459;27;20050;-66
2022/12/15 09:21:17;;;;;;;30.05;12.63;;;-3274.30;83.40;;;;;;5118245;27;20040;-64
2022/12/15 09:23:48;;;;;;;31.75;13.90;;;-3274.30;83.40;;;;;;5116510;27;20059;-62
2022/12/15 09:26:15;;;;;;;32.45;12.77;;;-3274.30;83.50;;;;;;5120203;27;20056;-70
2022/12/15 09:28:43;;;;;;;33.38;13.90;;;-3274.30;83.60;;;;;;5110183;27;20375;-71
2022/12/15 09:31:11;;;;;;;31.77;13.75;;;-3274.30;83.60;;;;;;5094993;27;20071;-62
2022/12/15 09:33:41;;;;;;;32.97;12.63;;;-3274.30;83.40;;;;;;5116273;27;20099;-62
2022/12/15 09:36:09;;;;;;;31.00;13.95;;;-3274.40;83.30;;;;;;5119633;27;20050;-65
2022/12/15 09:38:37;;;;;;;33.13;13.15;;;-3274.30;83.20;;;;;;5119089;27;20100;-66
2022/12/15 09:41:09;;;;;;;30.30;13.48;;;-3274.40;83.00;;;;;;5110729;27;20125;-66
2022/12/15 09:43:44;;;;;;;32.55;12.95;;;-3274.40;83.00;;;;;;5105299;27;20152;-65
2022/12/15 09:46:20;;;;;;;27.60;12.48;;;-3274.40;82.90;;;;;;5114014;27;20047;-65
2022/12/15 09:48:51;;;;;;;31.38;14.00;;;-3274.40;83.00;;;;;;5112471;27;20052;-65
2022/12/15 09:51:18;;;;;;;30.90;12.85;;;-3274.30;83.20;;;;;;5117017;27;20059;-71
2022/12/15 09:53:46;;;;;;;29.02;12.35;;;-3274.40;83.20;;;;;;5115612;27;20468;-70
2022/12/15 09:56:21;;;;;;;29.55;12.93;;;-3274.40;83.10;;;;;;5108555;27;20401;-59
2022/12/15 09:58:57;;;;;;;27.02;13.18;;;-3274.50;83.00;;;;;;5116848;27;20062;-62
2022/12/15 10:01:32;;;;;;;30.33;13.02;;;-3274.50;82.90;;;;;;5115565;27;20047;-70
2022/12/15 10:04:10;;;;;;;31.50;13.27;;;-3274.40;83.00;;;;;;5118494;27;20051;-70
2022/12/15 10:06:45;;;;;;;29.60;12.20;;;-3274.40;82.90;;;;;;5118854;27;20539;-62
2022/12/15 10:09:19;;;;;;;31.33;14.27;;;-3274.40;82.80;;;;;;5116958;27;20043;-62
2022/12/15 10:11:51;;;;;;;33.70;17.13;;;-3274.40;82.80;;;;;;5115943;27;20394;-65
2022/12/15 10:14:28;;;;;;;31.17;16.60;;;-3274.30;82.90;;;;;;5114421;27;20540;-65
2022/12/15 10:17:02;;;;;;;34.20;15.73;;;-3274.30;82.80;;;;;;5113807;27;20043;-71
2022/12/15 10:19:38;;;;;;;29.80;13.77;;;-3274.40;83.00;;;;;;5116511;27;20048;-72
2022/12/15 10:22:05;;;;;;;27.20;13.10;;;-3274.40;82.90;;;;;;5116262;27;20494;-71
2022/12/15 10:24:33;;;;;;;33.15;13.88;;;-3274.40;82.80;;;;;;5114018;27;20043;-71
2022/12/15 10:27:11;;;;;;;28.88;11.75;;;-3274.40;82.70;;;;;;5120194;27;20050;-62
2022/12/15 10:29:44;;;;;;;27.45;13.48;;;-3274.40;82.70;;;;;;5112680;27;20459;-61
2022/12/15 10:32:17;;;;;;;28.88;12.82;;;-3274.40;82.70;;;;;;5113423;27;20062;-63
2022/12/15 10:34:46;;;;;;;30.15;13.52;;;-3274.40;82.70;;;;;;5117944;27;20047;-63
2022/12/15 10:37:17;;;;;;;28.08;11.85;;;-3274.50;82.70;;;;;;5114841;27;20103;-65
2022/12/15 10:39:45;;;;;;;;;;;-3274.50;82.70;;;;;;5116504;27;20066;-66
2022/12/15 10:42:19;;;;;;;27.60;12.50;;;-3274.50;82.60;;;;;;5110619;27;19935;-65
2022/12/15 10:44:49;;;;;;;28.55;12.32;;;-3274.50;82.50;;;;;;5115414;27;20047;-65
2022/12/15 10:47:22;;;;;;;25.80;12.10;;;-3274.60;82.50;;;;;;5117718;27;20054;-64
2022/12/15 10:49:50;;;;;;;27.33;11.65;;;-3274.60;82.40;;;;;;5118632;27;20043;-62
2022/12/15 10:52:27;;;;;;;26.98;12.43;;;-3274.60;82.30;;;;;;5113361;27;20051;-62
2022/12/15 10:54:55;;;;;;;28.70;12.05;;;-3274.60;82.30;;;;;;5111964;27;20044;-62
2022/12/15 10:57:26;;;;;;;30.75;13.75;;;-3274.60;82.20;;;;;;5117972;27;20138;-61
2022/12/15 10:59:54;;;;;;;31.83;13.13;;;-3274.60;82.40;;;;;;5095449;27;20052;-62
2022/12/15 11:02:31;;;;;;;28.90;12.68;;;-3274.60;82.30;;;;;;5093832;27;20052;-61
2022/12/15 11:05:02;;;;;;;27.45;12.35;;;-3274.60;82.30;;;;;;5106489;27;20127;-62
2022/12/15 11:07:35;;;;;;;28.15;12.60;;;-3274.60;82.20;;;;;;5102456;27;20177;-72
2022/12/15 11:10:14;;;;;;;27.95;12.30;;;-3274.70;82.20;;;;;;5108583;27;20044;-72
2022/12/15 11:12:50;;;;;;;27.65;11.68;;;-3274.70;82.20;;;;;;5100320;27;20093;-71
2022/12/15 11:15:40;;;;;;;29.27;11.63;;;-3274.80;82.20;;;;;;5108982;27;20050;-62
2022/12/15 11:18:15;;;;;;;23.80;11.90;;;-3274.80;82.20;;;;;;5116046;27;20439;-62
2022/12/15 11:20:50;;;;;;;25.48;12.55;;;-3274.80;82.20;;;;;;5116211;27;20409;-62
2022/12/15 11:23:23;;;;;;;24.70;12.43;;;-3274.80;82.30;;;;;;5111537;27;20074;-62
2022/12/15 11:25:56;;;;;;;24.73;11.43;;;-3274.90;82.30;;;;;;5116232;27;20482;-66
2022/12/15 11:28:29;;;;;;;22.88;11.73;;;-3274.90;82.30;;;;;;5113445;27;20048;-64
2022/12/15 11:31:03;;;;;;;25.88;11.70;;;-3274.90;82.30;;;;;;5114873;27;20048;-61
2022/12/15 11:33:31;;;;;;;24.70;11.48;;;-3274.90;82.50;;;;;;5112053;27;20421;-62
2022/12/15 11:36:09;;;;;;;26.05;11.70;;;-3275.00;82.50;;;;;;5104080;27;20055;-61
2022/12/15 11:38:44;;;;;;;23.65;11.35;;;-3275.00;82.50;;;;;;5089368;28;20136;-62
2022/12/15 11:41:25;;;;;;;24.30;11.75;;;-3275.10;82.40;;;;;;5114130;27;20074;-61
2022/12/15 11:44:21;;;;;;;28.02;12.52;;;-3275.10;82.40;;;;;;5106031;27;20078;-61
2022/12/15 11:46:55;;;;;;;26.23;12.10;;;-3275.10;82.40;;;;;;5107989;27;20048;-62
2022/12/15 11:49:47;;;;;;;26.35;11.93;;;-3275.10;82.40;;;;;;5091597;28;20067;-61
2022/12/15 11:52:29;;;;;;;21.83;10.45;;;-3275.10;82.60;;;;;;5097710;27;20665;-62
2022/12/15 11:55:06;;;;;;;26.42;11.90;;;-3275.20;82.40;;;;;;5115664;27;20122;-61
2022/12/15 11:57:58;;;;;;;22.52;11.70;;;-3275.20;82.40;;;;;;5115823;27;20043;-63
2022/12/15 12:00:25;;;;;;;26.25;12.05;;;-3275.20;82.60;;;;;;5119674;27;20057;-66
2022/12/15 12:03:14;;;;;;;27.00;12.18;;;-3275.20;82.70;;;;;;5118428;27;20043;-66
2022/12/15 12:05:59;;;;;;;24.85;11.68;;;-3275.30;82.60;;;;;;5111685;27;20525;-71
2022/12/15 12:08:43;;;;;;;22.60;10.98;;;-3275.20;82.60;;;;;;5113564;27;20073;-71
2022/12/15 12:11:13;;;;;;;24.02;11.68;;;-3275.20;82.70;;;;;;5118747;27;20047;-73
2022/12/15 12:14:01;;;;;;;23.42;11.23;;;-3275.30;82.70;;;;;;5112807;27;20062;-71
2022/12/15 12:16:39;;;;;;;24.45;10.88;;;-3275.30;82.50;;;;;;5107000;27;20090;-61
2022/12/15 12:19:13;;;;;;;22.90;11.55;;;-3275.30;82.60;;;;;;5118398;27;20440;-62
2022/12/15 12:21:43;;;;;;;19.92;10.15;;;-3275.30;82.70;;;;;;5113139;27;20062;-61
2022/12/15 12:24:18;;;;;;;25.38;11.45;;;-3275.40;82.70;;;;;;5115702;27;20497;-62
2022/12/15 12:26:47;;;;;;;25.13;11.25;;;-3275.50;82.60;;;;;;5113917;27;20056;-60
2022/12/15 12:29:20;;;;;;;24.40;10.63;;;-3275.50;82.60;;;;;;5111953;27;20044;-61
2022/12/15 12:31:59;;;;;;;25.98;12.07;;;-3275.50;82.50;;;;;;5114553;27;20065;-70
2022/12/15 12:34:32;;;;;;;23.80;11.07;;;-3275.60;82.50;;;;;;5115231;27;20167;-71
2022/12/15 12:37:13;;;;;;;21.00;10.68;;;-3275.60;82.60;;;;;;5092907;28;22177;-72
2022/12/15 12:39:42;;;;;;;18.80;10.05;;;-3275.60;82.60;;;;;;5095505;28;20060;-72
2022/12/15 12:42:15;;;;;;;21.83;10.45;;;-3275.60;82.50;;;;;;5097137;28;20053;-72
2022/12/15 12:44:42;;;;;;;20.70;9.73;;;-3275.60;82.70;;;;;;5095605;28;20047;-71
2022/12/15 12:47:17;;;;;;;19.95;9.38;;;-3275.60;82.80;;;;;;5098311;28;20040;-67
2022/12/15 12:49:48;;;;;;;21.30;10.30;;;-3275.60;82.80;;;;;;5096471;28;20092;-66
2022/12/15 12:52:22;;;;;;;21.10;9.02;;;-3275.60;82.90;;;;;;5093100;28;20060;-72
2022/12/15 12:54:59;;;;;;;25.58;10.50;;;-3275.70;82.90;;;;;;5094169;28;20052;-73
2022/12/15 12:57:38;;;;;;;20.05;9.88;;;-3275.70;82.90;;;;;;5096914;28;20040;-67
2022/12/15 13:00:21;;;;;;;19.08;8.93;;;-3275.70;82.90;;;;;;5096568;28;20039;-68
2022/12/15 13:03:16;;;;;;;19.63;8.90;;;-3275.70;83.00;;;;;;5092767;28;20040;-68
2022/12/15 13:05:46;;;;;;;21.05;9.35;;;-3275.80;83.00;;;;;;5094864;28;20555;-60
2022/12/15 13:08:52;;;;;;;20.80;10.07;;;-3275.80;83.00;;;;;;5094139;27;20040;-61
2022/12/15 13:11:55;;;;;;;19.77;10.05;;;-3275.80;82.80;;;;;;5118772;27;20056;-72
2022/12/15 13:14:34;;;;;;;18.60;9.27;;;-3275.80;83.00;;;;;;5120915;27;20663;-71
2022/12/15 13:17:05;;;;;;;19.02;9.43;;;-3275.80;83.10;;;;;;5114833;27;20060;-60
2022/12/15 13:20:11;;;;;;;22.20;9.32;;;-3275.80;83.10;;;;;;5100969;28;20050;-62
2022/12/15 13:22:39;;;;;;;18.35;9.18;;;-3275.90;83.20;;;;;;5098748;28;20047;-65
2022/12/15 13:25:34;;;;;;;18.30;9.10;;;-3275.90;83.10;;;;;;5097537;28;20044;-66
2022/12/15 13:28:16;;;;;;;17.63;9.38;;;-3275.90;83.10;;;;;;5096560;28;20048;-64
2022/12/15 13:31:16;;;;;;;18.70;8.90;;;-3275.90;83.10;;;;;;5100160;28;20044;-66
2022/12/15 13:33:55;;;;;;;18.40;9.47;;;-3275.90;83.10;;;;;;5100682;27;20043;-63
2022/12/15 13:36:46;;;;;;;16.75;9.05;;;-3275.90;83.10;;;;;;5100428;28;20548;-66
2022/12/15 13:39:34;;;;;;;18.95;9.38;;;-3276.00;83.10;;;;;;5091261;28;20051;-65
2022/12/15 13:42:27;;;;;;;18.15;8.73;;;-3276.00;83.00;;;;;;5100905;28;20086;-65
2022/12/15 13:45:05;;;;;;;17.73;8.98;;;-3276.00;83.00;;;;;;5118657;27;20043;-66
2022/12/15 13:47:34;;;;;;;16.83;9.27;;;-3276.00;82.90;;;;;;5115565;27;20508;-66
2022/12/15 13:50:12;;;;;;;15.00;7.85;;;-3276.00;82.80;;;;;;5120664;27;20050;-65
2022/12/15 13:52:46;;;;;;;18.60;8.32;;;-3276.10;82.90;;;;;;5112312;27;20047;-65
2022/12/15 13:55:17;;;;;;;16.55;8.43;;;-3276.10;83.00;;;;;;5117026;27;20050;-64
2022/12/15 13:57:54;;;;;;;18.33;8.15;;;-3276.10;82.90;;;;;;5119165;27;20046;-66
2022/12/15 14:00:21;;;;;;;17.15;9.10;;;-3276.10;82.90;;;;;;5120445;27;20160;-71
2022/12/15 14:02:48;;;;;;;16.02;8.38;;;-3276.10;82.80;;;;;;5110384;27;20047;-71
2022/12/15 14:05:20;;;;;;;17.38;8.55;;;-3276.10;83.00;;;;;;5127004;27;20122;-71
2022/12/15 14:07:50;;;;;;;17.85;8.63;;;-3276.10;82.90;;;;;;5119667;27;20046;-70
2022/12/15 14:10:21;;;;;;;20.75;8.10;;;-3276.10;82.80;;;;;;5120139;27;20055;-66
2022/12/15 14:12:48;;;;;;;;;;;-3276.10;82.80;;;;;;5118864;27;20138;-65
2022/12/15 14:15:18;;;;;;;20.60;8.57;;;-3276.10;83.00;;;;;;5100880;27;20305;-72
2022/12/15 14:17:50;;;;;;;19.98;9.27;;;-3276.10;83.20;;;;;;5092971;28;20052;-71
2022/12/15 14:20:21;;;;;;;21.35;9.88;;;-3276.10;83.30;;;;;;5097642;28;20052;-60
2022/12/15 14:22:49;;;;;;;18.40;9.32;;;-3276.00;83.30;;;;;;5099678;27;20052;-63
2022/12/15 14:25:22;;;;;;;19.23;9.32;;;-3276.00;83.30;;;;;;5099512;28;20145;-64
2022/12/15 14:27:49;;;;;;;20.13;8.98;;;-3276.00;83.30;;;;;;5099141;27;20135;-64
2022/12/15 14:30:21;;;;;;;19.27;10.02;;;-3276.00;83.30;;;;;;5092789;28;20047;-63
2022/12/15 14:32:52;;;;;;;19.75;9.30;;;-3276.00;83.30;;;;;;5097592;28;20051;-62
2022/12/15 14:35:25;;;;;;;20.42;10.10;;;-3276.00;83.40;;;;;;5098901;28;20139;-64
2022/12/15 14:37:55;;;;;;;20.30;9.70;;;-3276.00;83.40;;;;;;5096810;28;20047;-63
2022/12/15 14:40:22;;;;;;;23.63;9.88;;;-3275.90;83.40;;;;;;5097734;27;20056;-71
2022/12/15 14:42:50;;;;;;;22.60;10.93;;;-3275.90;83.50;;;;;;5091721;28;20044;-72
2022/12/15 14:45:21;;;;;;;19.95;9.98;;;-3275.90;83.60;;;;;;5112009;27;20051;-61
2022/12/15 14:47:53;;;;;;;20.98;9.45;;;-3275.90;83.70;;;;;;5115990;27;20082;-61
2022/12/15 14:50:23;;;;;;;17.85;8.80;;;-3275.90;83.80;;;;;;5116574;27;20056;-63
2022/12/15 14:52:55;;;;;;;18.17;9.10;;;-3275.90;83.70;;;;;;5110441;27;20043;-62
2022/12/15 14:55:32;;;;;;;22.23;9.63;;;-3275.90;83.50;;;;;;5110015;27;20047;-62
2022/12/15 14:57:59;;;;;;;27.15;10.60;;;-3275.90;83.60;;;;;;5110248;27;20082;-61